Hundvaag 1 weather for Dec 1994
Month no. 90
Obs.
Da.
Temp. Dew Point Precip. Wind
Speed
Wind gusts Cloud cover Press. Humidity Wind dir. Sunny OPT
01.12.1994 5,8   2,0     1          
02.12.1994 6,2   0,8     0          
03.12.1994 4,0   0,0     10       1  
04.12.1994 7,1   2,6     0          
05.12.1994 6,0   1,1     0          
06.12.1994 3,1   4,7     0          
07.12.1994 3,5   7,8     7          
08.12.1994 4,3   8,6     8          
09.12.1994 5,1   10,0     8          
10.12.1994 7,0   11,2     0          
11.12.1994 5,7   17,0     0          
12.12.1994 7,2   4,0     0          
13.12.1994 2,1   9,3     10          
14.12.1994 0,1   1,1     10          
15.12.1994 0,7   0,0     1          
16.12.1994 4,3   19,1     0          
17.12.1994 2,1   4,3     0          
18.12.1994 5,4   17,0     0          
19.12.1994 2,7   8,8     1          
20.12.1994 3,0   13,9     1          
21.12.1994 2,9   7,6     8          
22.12.1994 -2,9   1,2     9          
23.12.1994 5,2   0,0     0          
24.12.1994 7,6   27,5     2          
25.12.1994 6,2   2,0     0          
26.12.1994 3,4   15,0     2       1  
27.12.1994 1,1   6,2     0       1  
28.12.1994 -0,1   3,3     5          
29.12.1994 6,4   8,6     0          
30.12.1994 3,4   6,0     8          
31.12.1994 1,2   1,3     3          
Avrg/Sum 3,9   222,0     3,0       3